sensor_id;sensor_type;location;lat;lon;timestamp;temperature;humidity
74081;SHT31;62438;52.228;6.864;2023-06-14T00:00:22;17.09;53.21
74081;SHT31;62438;52.228;6.864;2023-06-14T00:02:23;17.09;53.56
74081;SHT31;62438;52.228;6.864;2023-06-14T00:04:23;17.02;54.02
74081;SHT31;62438;52.228;6.864;2023-06-14T00:06:25;16.99;53.57
74081;SHT31;62438;52.228;6.864;2023-06-14T00:08:25;16.91;53.74
74081;SHT31;62438;52.228;6.864;2023-06-14T00:10:26;16.78;54.27
74081;SHT31;62438;52.228;6.864;2023-06-14T00:12:31;16.75;54.69
74081;SHT31;62438;52.228;6.864;2023-06-14T00:14:31;16.71;54.87
74081;SHT31;62438;52.228;6.864;2023-06-14T00:16:32;16.74;55.18
74081;SHT31;62438;52.228;6.864;2023-06-14T00:18:33;16.68;54.66
74081;SHT31;62438;52.228;6.864;2023-06-14T00:20:34;16.64;55.35
74081;SHT31;62438;52.228;6.864;2023-06-14T00:22:34;16.71;54.62
74081;SHT31;62438;52.228;6.864;2023-06-14T00:24:36;16.71;54.85
74081;SHT31;62438;52.228;6.864;2023-06-14T00:26:37;16.72;55.08
74081;SHT31;62438;52.228;6.864;2023-06-14T00:28:37;16.69;54.92
74081;SHT31;62438;52.228;6.864;2023-06-14T00:30:37;16.72;55.07
74081;SHT31;62438;52.228;6.864;2023-06-14T00:32:38;16.75;54.69
74081;SHT31;62438;52.228;6.864;2023-06-14T00:34:38;16.65;55.41
74081;SHT31;62438;52.228;6.864;2023-06-14T00:36:39;16.61;55.84
74081;SHT31;62438;52.228;6.864;2023-06-14T00:38:39;16.54;55.49
74081;SHT31;62438;52.228;6.864;2023-06-14T00:40:40;16.40;56.29
74081;SHT31;62438;52.228;6.864;2023-06-14T00:42:40;16.28;56.40
74081;SHT31;62438;52.228;6.864;2023-06-14T00:44:40;16.38;55.52
74081;SHT31;62438;52.228;6.864;2023-06-14T00:46:41;16.35;57.28
74081;SHT31;62438;52.228;6.864;2023-06-14T00:48:41;16.26;56.79
74081;SHT31;62438;52.228;6.864;2023-06-14T00:50:42;16.17;57.65
74081;SHT31;62438;52.228;6.864;2023-06-14T00:52:45;16.21;57.03
74081;SHT31;62438;52.228;6.864;2023-06-14T00:54:46;16.21;57.65
74081;SHT31;62438;52.228;6.864;2023-06-14T00:56:47;16.14;57.35
74081;SHT31;62438;52.228;6.864;2023-06-14T00:58:47;16.17;57.84
74081;SHT31;62438;52.228;6.864;2023-06-14T01:00:48;16.17;56.80
74081;SHT31;62438;52.228;6.864;2023-06-14T01:02:48;16.26;56.72
74081;SHT31;62438;52.228;6.864;2023-06-14T01:04:52;16.33;56.68
74081;SHT31;62438;52.228;6.864;2023-06-14T01:11:50;16.40;57.53
74081;SHT31;62438;52.228;6.864;2023-06-14T01:13:52;16.27;56.97
74081;SHT31;62438;52.228;6.864;2023-06-14T01:15:54;16.34;56.59
74081;SHT31;62438;52.228;6.864;2023-06-14T01:17:55;16.60;55.77
74081;SHT31;62438;52.228;6.864;2023-06-14T01:20:03;16.53;56.21
74081;SHT31;62438;52.228;6.864;2023-06-14T01:22:10;16.43;56.85
74081;SHT31;62438;52.228;6.864;2023-06-14T01:24:10;16.33;56.94
74081;SHT31;62438;52.228;6.864;2023-06-14T01:26:11;16.20;57.85
74081;SHT31;62438;52.228;6.864;2023-06-14T01:28:14;16.05;58.25
74081;SHT31;62438;52.228;6.864;2023-06-14T01:30:17;15.95;58.80
74081;SHT31;62438;52.228;6.864;2023-06-14T01:32:18;15.92;58.17
74081;SHT31;62438;52.228;6.864;2023-06-14T01:34:19;15.92;58.51
74081;SHT31;62438;52.228;6.864;2023-06-14T01:36:19;15.99;58.81
74081;SHT31;62438;52.228;6.864;2023-06-14T01:38:24;15.87;59.62
74081;SHT31;62438;52.228;6.864;2023-06-14T01:40:24;15.85;59.58
74081;SHT31;62438;52.228;6.864;2023-06-14T01:42:25;15.79;58.88
74081;SHT31;62438;52.228;6.864;2023-06-14T01:44:27;15.86;58.64
74081;SHT31;62438;52.228;6.864;2023-06-14T01:46:28;15.83;59.02
74081;SHT31;62438;52.228;6.864;2023-06-14T01:48:29;16.00;58.24
74081;SHT31;62438;52.228;6.864;2023-06-14T01:50:30;16.05;58.61
74081;SHT31;62438;52.228;6.864;2023-06-14T01:52:31;15.99;58.53
74081;SHT31;62438;52.228;6.864;2023-06-14T01:54:31;16.00;58.28
74081;SHT31;62438;52.228;6.864;2023-06-14T01:56:31;15.97;58.47
74081;SHT31;62438;52.228;6.864;2023-06-14T01:58:32;15.92;58.88
74081;SHT31;62438;52.228;6.864;2023-06-14T02:00:33;16.13;57.55
74081;SHT31;62438;52.228;6.864;2023-06-14T02:02:33;16.09;57.95
74081;SHT31;62438;52.228;6.864;2023-06-14T02:04:34;16.18;57.30
74081;SHT31;62438;52.228;6.864;2023-06-14T02:06:34;15.96;59.08
74081;SHT31;62438;52.228;6.864;2023-06-14T02:08:35;15.95;59.32
74081;SHT31;62438;52.228;6.864;2023-06-14T02:10:35;15.85;59.67
74081;SHT31;62438;52.228;6.864;2023-06-14T02:12:36;15.81;59.01
74081;SHT31;62438;52.228;6.864;2023-06-14T02:14:37;15.76;59.22
74081;SHT31;62438;52.228;6.864;2023-06-14T02:16:38;15.66;60.02
74081;SHT31;62438;52.228;6.864;2023-06-14T02:18:39;15.72;59.53
74081;SHT31;62438;52.228;6.864;2023-06-14T02:20:39;15.78;59.10
74081;SHT31;62438;52.228;6.864;2023-06-14T02:22:39;15.75;59.97
74081;SHT31;62438;52.228;6.864;2023-06-14T02:24:43;15.72;59.96
74081;SHT31;62438;52.228;6.864;2023-06-14T02:26:43;15.68;59.78
74081;SHT31;62438;52.228;6.864;2023-06-14T02:28:44;15.58;60.51
74081;SHT31;62438;52.228;6.864;2023-06-14T02:30:44;15.49;61.08
74081;SHT31;62438;52.228;6.864;2023-06-14T02:32:45;15.52;60.68
74081;SHT31;62438;52.228;6.864;2023-06-14T02:34:45;15.45;61.34
74081;SHT31;62438;52.228;6.864;2023-06-14T02:36:49;15.51;60.94
74081;SHT31;62438;52.228;6.864;2023-06-14T02:38:50;15.56;60.88
74081;SHT31;62438;52.228;6.864;2023-06-14T02:40:50;15.48;60.94
74081;SHT31;62438;52.228;6.864;2023-06-14T02:42:51;15.47;61.11
74081;SHT31;62438;52.228;6.864;2023-06-14T02:44:51;15.48;60.83
74081;SHT31;62438;52.228;6.864;2023-06-14T02:46:52;15.52;60.70
74081;SHT31;62438;52.228;6.864;2023-06-14T02:48:52;15.51;60.83
74081;SHT31;62438;52.228;6.864;2023-06-14T02:50:53;15.39;61.29
74081;SHT31;62438;52.228;6.864;2023-06-14T02:52:55;15.30;62.05
74081;SHT31;62438;52.228;6.864;2023-06-14T02:54:57;15.30;62.41
74081;SHT31;62438;52.228;6.864;2023-06-14T02:56:57;15.30;61.88
74081;SHT31;62438;52.228;6.864;2023-06-14T02:58:58;15.37;61.46
74081;SHT31;62438;52.228;6.864;2023-06-14T03:00:58;15.32;61.70
74081;SHT31;62438;52.228;6.864;2023-06-14T03:03:03;15.28;62.03
74081;SHT31;62438;52.228;6.864;2023-06-14T03:05:05;15.28;62.19
74081;SHT31;62438;52.228;6.864;2023-06-14T03:07:07;15.21;62.74
74081;SHT31;62438;52.228;6.864;2023-06-14T03:09:10;15.20;62.06
74081;SHT31;62438;52.228;6.864;2023-06-14T03:11:10;15.20;62.04
74081;SHT31;62438;52.228;6.864;2023-06-14T03:13:11;15.20;62.48
74081;SHT31;62438;52.228;6.864;2023-06-14T03:15:12;15.30;61.70
74081;SHT31;62438;52.228;6.864;2023-06-14T03:17:13;15.38;61.74
74081;SHT31;62438;52.228;6.864;2023-06-14T03:19:13;15.23;62.36
74081;SHT31;62438;52.228;6.864;2023-06-14T03:21:14;15.12;62.82
74081;SHT31;62438;52.228;6.864;2023-06-14T03:23:16;15.10;62.62
74081;SHT31;62438;52.228;6.864;2023-06-14T03:25:16;15.14;63.08
74081;SHT31;62438;52.228;6.864;2023-06-14T03:27:17;15.24;62.57
74081;SHT31;62438;52.228;6.864;2023-06-14T03:29:18;15.16;63.10
74081;SHT31;62438;52.228;6.864;2023-06-14T03:31:19;15.16;63.42
74081;SHT31;62438;52.228;6.864;2023-06-14T03:33:19;15.11;63.16
74081;SHT31;62438;52.228;6.864;2023-06-14T03:35:22;15.01;63.73
74081;SHT31;62438;52.228;6.864;2023-06-14T03:37:22;15.01;63.84
74081;SHT31;62438;52.228;6.864;2023-06-14T03:39:23;14.98;63.97
74081;SHT31;62438;52.228;6.864;2023-06-14T03:41:23;14.89;65.21
74081;SHT31;62438;52.228;6.864;2023-06-14T03:43:23;14.84;64.93
74081;SHT31;62438;52.228;6.864;2023-06-14T03:45:24;14.80;65.04
74081;SHT31;62438;52.228;6.864;2023-06-14T03:47:24;14.87;64.91
74081;SHT31;62438;52.228;6.864;2023-06-14T03:49:25;14.89;64.28
74081;SHT31;62438;52.228;6.864;2023-06-14T03:51:25;15.01;64.10
74081;SHT31;62438;52.228;6.864;2023-06-14T03:53:26;15.10;63.06
74081;SHT31;62438;52.228;6.864;2023-06-14T03:55:28;15.00;64.42
74081;SHT31;62438;52.228;6.864;2023-06-14T03:57:31;14.98;65.15
74081;SHT31;62438;52.228;6.864;2023-06-14T03:59:31;14.94;64.06
74081;SHT31;62438;52.228;6.864;2023-06-14T04:01:32;14.93;64.97
74081;SHT31;62438;52.228;6.864;2023-06-14T04:03:33;15.00;64.58
74081;SHT31;62438;52.228;6.864;2023-06-14T04:05:34;15.00;64.92
74081;SHT31;62438;52.228;6.864;2023-06-14T04:07:35;15.03;64.23
74081;SHT31;62438;52.228;6.864;2023-06-14T04:09:40;15.12;63.95
74081;SHT31;62438;52.228;6.864;2023-06-14T04:11:41;15.11;64.40
74081;SHT31;62438;52.228;6.864;2023-06-14T04:13:41;15.08;66.25
74081;SHT31;62438;52.228;6.864;2023-06-14T04:15:42;15.11;64.30
74081;SHT31;62438;52.228;6.864;2023-06-14T04:17:44;15.08;65.46
74081;SHT31;62438;52.228;6.864;2023-06-14T04:19:44;15.12;65.09
74081;SHT31;62438;52.228;6.864;2023-06-14T04:21:45;15.16;65.27
74081;SHT31;62438;52.228;6.864;2023-06-14T04:23:45;15.17;65.01
74081;SHT31;62438;52.228;6.864;2023-06-14T04:25:46;15.20;64.73
74081;SHT31;62438;52.228;6.864;2023-06-14T04:27:47;15.20;65.34
74081;SHT31;62438;52.228;6.864;2023-06-14T04:29:47;15.34;64.41
74081;SHT31;62438;52.228;6.864;2023-06-14T04:31:54;15.34;64.59
74081;SHT31;62438;52.228;6.864;2023-06-14T04:33:56;15.38;65.53
74081;SHT31;62438;52.228;6.864;2023-06-14T04:35:56;15.42;64.56
74081;SHT31;62438;52.228;6.864;2023-06-14T04:37:56;15.54;64.19
74081;SHT31;62438;52.228;6.864;2023-06-14T04:39:57;15.54;64.85
74081;SHT31;62438;52.228;6.864;2023-06-14T04:41:58;15.63;64.08
74081;SHT31;62438;52.228;6.864;2023-06-14T04:44:01;15.58;64.25
74081;SHT31;62438;52.228;6.864;2023-06-14T04:46:02;15.66;63.65
74081;SHT31;62438;52.228;6.864;2023-06-14T04:48:03;15.65;64.63
74081;SHT31;62438;52.228;6.864;2023-06-14T04:50:05;15.73;63.94
74081;SHT31;62438;52.228;6.864;2023-06-14T04:52:06;15.68;64.63
74081;SHT31;62438;52.228;6.864;2023-06-14T04:54:06;15.72;65.08
74081;SHT31;62438;52.228;6.864;2023-06-14T04:56:10;15.73;65.48
74081;SHT31;62438;52.228;6.864;2023-06-14T04:58:11;15.89;63.90
74081;SHT31;62438;52.228;6.864;2023-06-14T05:00:13;15.90;64.27
74081;SHT31;62438;52.228;6.864;2023-06-14T05:02:14;16.02;62.80
74081;SHT31;62438;52.228;6.864;2023-06-14T05:04:17;16.23;62.46
74081;SHT31;62438;52.228;6.864;2023-06-14T05:06:18;16.27;62.83
74081;SHT31;62438;52.228;6.864;2023-06-14T05:08:20;16.38;62.25
74081;SHT31;62438;52.228;6.864;2023-06-14T05:10:24;16.44;61.32
74081;SHT31;62438;52.228;6.864;2023-06-14T05:12:24;16.57;61.25
74081;SHT31;62438;52.228;6.864;2023-06-14T05:14:25;16.60;61.78
74081;SHT31;62438;52.228;6.864;2023-06-14T05:16:25;16.71;61.40
74081;SHT31;62438;52.228;6.864;2023-06-14T05:18:27;16.76;60.75
74081;SHT31;62438;52.228;6.864;2023-06-14T05:20:28;16.82;60.57
74081;SHT31;62438;52.228;6.864;2023-06-14T05:22:28;16.99;60.21
74081;SHT31;62438;52.228;6.864;2023-06-14T05:24:29;17.06;60.16
74081;SHT31;62438;52.228;6.864;2023-06-14T05:26:33;17.18;59.80
74081;SHT31;62438;52.228;6.864;2023-06-14T05:28:34;17.24;61.60
74081;SHT31;62438;52.228;6.864;2023-06-14T05:30:34;17.33;59.96
74081;SHT31;62438;52.228;6.864;2023-06-14T05:32:35;17.40;59.16
74081;SHT31;62438;52.228;6.864;2023-06-14T05:34:36;17.46;58.74
74081;SHT31;62438;52.228;6.864;2023-06-14T05:36:36;17.51;59.54
74081;SHT31;62438;52.228;6.864;2023-06-14T05:38:37;17.64;58.55
74081;SHT31;62438;52.228;6.864;2023-06-14T05:40:37;17.64;58.61
74081;SHT31;62438;52.228;6.864;2023-06-14T05:42:37;17.71;60.00
74081;SHT31;62438;52.228;6.864;2023-06-14T05:44:38;17.81;59.63
74081;SHT31;62438;52.228;6.864;2023-06-14T05:46:38;17.91;58.55
74081;SHT31;62438;52.228;6.864;2023-06-14T05:48:40;18.01;58.35
74081;SHT31;62438;52.228;6.864;2023-06-14T05:50:40;17.97;59.84
74081;SHT31;62438;52.228;6.864;2023-06-14T05:52:41;18.05;59.94
74081;SHT31;62438;52.228;6.864;2023-06-14T05:54:41;18.15;57.56
74081;SHT31;62438;52.228;6.864;2023-06-14T05:56:42;18.24;58.88
74081;SHT31;62438;52.228;6.864;2023-06-14T05:58:42;18.35;58.68
74081;SHT31;62438;52.228;6.864;2023-06-14T06:00:42;18.42;58.54
74081;SHT31;62438;52.228;6.864;2023-06-14T06:02:44;18.53;56.51
74081;SHT31;62438;52.228;6.864;2023-06-14T06:04:45;18.56;57.36
74081;SHT31;62438;52.228;6.864;2023-06-14T06:06:45;18.60;57.43
74081;SHT31;62438;52.228;6.864;2023-06-14T06:08:47;18.69;59.17
74081;SHT31;62438;52.228;6.864;2023-06-14T06:10:47;18.67;56.45
74081;SHT31;62438;52.228;6.864;2023-06-14T06:12:48;18.74;56.67
74081;SHT31;62438;52.228;6.864;2023-06-14T06:14:49;18.78;57.10
74081;SHT31;62438;52.228;6.864;2023-06-14T06:16:50;18.66;55.92
74081;SHT31;62438;52.228;6.864;2023-06-14T06:18:52;18.80;57.69
74081;SHT31;62438;52.228;6.864;2023-06-14T06:20:53;18.91;57.03
74081;SHT31;62438;52.228;6.864;2023-06-14T06:22:53;18.97;55.13
74081;SHT31;62438;52.228;6.864;2023-06-14T06:24:54;19.10;55.95
74081;SHT31;62438;52.228;6.864;2023-06-14T06:26:55;19.12;56.33
74081;SHT31;62438;52.228;6.864;2023-06-14T06:28:55;19.29;56.91
74081;SHT31;62438;52.228;6.864;2023-06-14T06:30:57;19.36;54.95
74081;SHT31;62438;52.228;6.864;2023-06-14T06:32:57;19.46;55.91
74081;SHT31;62438;52.228;6.864;2023-06-14T06:34:58;19.51;54.62
74081;SHT31;62438;52.228;6.864;2023-06-14T06:37:00;19.56;54.30
74081;SHT31;62438;52.228;6.864;2023-06-14T06:39:04;19.70;53.68
74081;SHT31;62438;52.228;6.864;2023-06-14T06:41:10;19.83;53.26
74081;SHT31;62438;52.228;6.864;2023-06-14T06:43:10;19.83;53.52
74081;SHT31;62438;52.228;6.864;2023-06-14T06:45:13;19.80;53.55
74081;SHT31;62438;52.228;6.864;2023-06-14T06:47:14;19.82;53.54
74081;SHT31;62438;52.228;6.864;2023-06-14T06:49:14;19.86;54.38
74081;SHT31;62438;52.228;6.864;2023-06-14T06:51:15;19.94;53.07
74081;SHT31;62438;52.228;6.864;2023-06-14T06:53:15;20.06;53.25
74081;SHT31;62438;52.228;6.864;2023-06-14T06:55:15;20.16;52.00
74081;SHT31;62438;52.228;6.864;2023-06-14T06:57:16;20.18;52.85
74081;SHT31;62438;52.228;6.864;2023-06-14T06:59:16;20.17;52.59
74081;SHT31;62438;52.228;6.864;2023-06-14T07:01:17;20.23;51.83
74081;SHT31;62438;52.228;6.864;2023-06-14T07:03:18;20.20;52.12
74081;SHT31;62438;52.228;6.864;2023-06-14T07:05:20;20.28;52.16
74081;SHT31;62438;52.228;6.864;2023-06-14T07:07:23;20.24;52.56
74081;SHT31;62438;52.228;6.864;2023-06-14T07:09:23;20.35;52.26
74081;SHT31;62438;52.228;6.864;2023-06-14T07:11:24;20.37;51.90
74081;SHT31;62438;52.228;6.864;2023-06-14T07:13:25;20.47;52.83
74081;SHT31;62438;52.228;6.864;2023-06-14T07:15:25;20.43;51.46
74081;SHT31;62438;52.228;6.864;2023-06-14T07:17:26;20.62;52.17
74081;SHT31;62438;52.228;6.864;2023-06-14T07:19:27;20.79;51.14
74081;SHT31;62438;52.228;6.864;2023-06-14T07:21:28;20.86;49.73
74081;SHT31;62438;52.228;6.864;2023-06-14T07:23:28;20.78;51.37
74081;SHT31;62438;52.228;6.864;2023-06-14T07:25:29;20.78;50.23
74081;SHT31;62438;52.228;6.864;2023-06-14T07:27:30;20.92;49.84
74081;SHT31;62438;52.228;6.864;2023-06-14T07:29:30;21.02;50.50
74081;SHT31;62438;52.228;6.864;2023-06-14T07:31:31;21.02;50.25
74081;SHT31;62438;52.228;6.864;2023-06-14T07:33:31;21.20;50.59
74081;SHT31;62438;52.228;6.864;2023-06-14T07:35:31;21.22;47.89
74081;SHT31;62438;52.228;6.864;2023-06-14T07:37:32;21.29;48.51
74081;SHT31;62438;52.228;6.864;2023-06-14T07:39:32;21.29;48.59
74081;SHT31;62438;52.228;6.864;2023-06-14T07:41:33;21.20;48.47
74081;SHT31;62438;52.228;6.864;2023-06-14T07:43:33;21.24;47.71
74081;SHT31;62438;52.228;6.864;2023-06-14T07:45:33;21.36;46.81
74081;SHT31;62438;52.228;6.864;2023-06-14T07:47:34;21.41;47.07
74081;SHT31;62438;52.228;6.864;2023-06-14T07:49:35;21.43;48.58
74081;SHT31;62438;52.228;6.864;2023-06-14T07:51:35;21.31;46.53
74081;SHT31;62438;52.228;6.864;2023-06-14T07:53:35;21.49;48.50
74081;SHT31;62438;52.228;6.864;2023-06-14T07:55:36;21.50;47.34
74081;SHT31;62438;52.228;6.864;2023-06-14T07:57:37;21.51;46.49
74081;SHT31;62438;52.228;6.864;2023-06-14T07:59:38;21.70;44.85
74081;SHT31;62438;52.228;6.864;2023-06-14T08:01:38;21.58;46.35
74081;SHT31;62438;52.228;6.864;2023-06-14T08:03:40;21.82;46.39
74081;SHT31;62438;52.228;6.864;2023-06-14T08:05:40;21.87;45.04
74081;SHT31;62438;52.228;6.864;2023-06-14T08:07:40;21.77;45.37
74081;SHT31;62438;52.228;6.864;2023-06-14T08:09:41;21.80;47.14
74081;SHT31;62438;52.228;6.864;2023-06-14T08:11:44;22.05;44.85
74081;SHT31;62438;52.228;6.864;2023-06-14T08:13:45;21.67;44.69
74081;SHT31;62438;52.228;6.864;2023-06-14T08:15:45;21.67;46.26
74081;SHT31;62438;52.228;6.864;2023-06-14T08:17:46;21.89;45.35
74081;SHT31;62438;52.228;6.864;2023-06-14T08:19:46;21.91;44.52
74081;SHT31;62438;52.228;6.864;2023-06-14T08:21:47;21.70;44.57
74081;SHT31;62438;52.228;6.864;2023-06-14T08:23:47;21.70;45.20
74081;SHT31;62438;52.228;6.864;2023-06-14T08:25:47;21.95;43.62
74081;SHT31;62438;52.228;6.864;2023-06-14T08:27:48;22.23;43.36
74081;SHT31;62438;52.228;6.864;2023-06-14T08:29:49;22.33;43.65
74081;SHT31;62438;52.228;6.864;2023-06-14T08:31:50;22.29;43.42
74081;SHT31;62438;52.228;6.864;2023-06-14T08:33:50;22.10;42.81
74081;SHT31;62438;52.228;6.864;2023-06-14T08:35:51;22.26;41.84
74081;SHT31;62438;52.228;6.864;2023-06-14T08:37:51;22.25;43.24
74081;SHT31;62438;52.228;6.864;2023-06-14T08:39:51;22.19;43.27
74081;SHT31;62438;52.228;6.864;2023-06-14T08:41:52;22.22;42.90
74081;SHT31;62438;52.228;6.864;2023-06-14T08:43:53;22.18;42.94
74081;SHT31;62438;52.228;6.864;2023-06-14T08:45:58;22.39;43.33
74081;SHT31;62438;52.228;6.864;2023-06-14T08:48:01;22.36;43.01
74081;SHT31;62438;52.228;6.864;2023-06-14T08:50:02;22.45;43.56
74081;SHT31;62438;52.228;6.864;2023-06-14T08:52:05;22.29;41.62
74081;SHT31;62438;52.228;6.864;2023-06-14T08:54:08;22.45;43.98
74081;SHT31;62438;52.228;6.864;2023-06-14T08:56:10;22.45;43.43
74081;SHT31;62438;52.228;6.864;2023-06-14T08:58:13;22.67;43.53
74081;SHT31;62438;52.228;6.864;2023-06-14T09:00:14;22.52;42.96
74081;SHT31;62438;52.228;6.864;2023-06-14T09:02:15;22.49;42.95
74081;SHT31;62438;52.228;6.864;2023-06-14T09:04:18;22.74;42.01
74081;SHT31;62438;52.228;6.864;2023-06-14T09:06:23;22.87;43.67
74081;SHT31;62438;52.228;6.864;2023-06-14T09:08:26;22.81;42.05
74081;SHT31;62438;52.228;6.864;2023-06-14T09:10:31;22.86;41.58
74081;SHT31;62438;52.228;6.864;2023-06-14T09:12:33;22.73;42.50
74081;SHT31;62438;52.228;6.864;2023-06-14T09:14:34;22.74;41.96
74081;SHT31;62438;52.228;6.864;2023-06-14T09:16:38;22.77;41.82
74081;SHT31;62438;52.228;6.864;2023-06-14T09:18:45;22.68;43.26
74081;SHT31;62438;52.228;6.864;2023-06-14T09:20:48;22.61;42.37
74081;SHT31;62438;52.228;6.864;2023-06-14T09:22:48;22.70;42.80
74081;SHT31;62438;52.228;6.864;2023-06-14T09:24:49;22.94;42.21
74081;SHT31;62438;52.228;6.864;2023-06-14T09:26:53;22.81;43.57
74081;SHT31;62438;52.228;6.864;2023-06-14T09:28:54;23.12;41.91
74081;SHT31;62438;52.228;6.864;2023-06-14T09:30:55;23.31;41.70
74081;SHT31;62438;52.228;6.864;2023-06-14T09:32:56;23.17;43.87
74081;SHT31;62438;52.228;6.864;2023-06-14T09:34:56;23.07;42.59
74081;SHT31;62438;52.228;6.864;2023-06-14T09:36:57;22.90;42.59
74081;SHT31;62438;52.228;6.864;2023-06-14T09:39:02;23.11;42.36
74081;SHT31;62438;52.228;6.864;2023-06-14T09:41:06;23.03;43.22
74081;SHT31;62438;52.228;6.864;2023-06-14T09:43:07;22.80;44.12
74081;SHT31;62438;52.228;6.864;2023-06-14T09:45:11;22.83;43.58
74081;SHT31;62438;52.228;6.864;2023-06-14T09:47:12;23.03;43.70
74081;SHT31;62438;52.228;6.864;2023-06-14T09:49:12;23.08;42.82
74081;SHT31;62438;52.228;6.864;2023-06-14T09:51:13;23.24;42.45
74081;SHT31;62438;52.228;6.864;2023-06-14T09:53:16;23.14;42.82
74081;SHT31;62438;52.228;6.864;2023-06-14T09:55:21;22.98;43.67
74081;SHT31;62438;52.228;6.864;2023-06-14T09:57:22;23.12;44.03
74081;SHT31;62438;52.228;6.864;2023-06-14T09:59:30;23.32;43.55
74081;SHT31;62438;52.228;6.864;2023-06-14T10:01:32;23.58;44.14
74081;SHT31;62438;52.228;6.864;2023-06-14T10:03:34;23.67;44.13
74081;SHT31;62438;52.228;6.864;2023-06-14T10:05:36;23.62;42.67
74081;SHT31;62438;52.228;6.864;2023-06-14T10:07:43;23.72;43.25
74081;SHT31;62438;52.228;6.864;2023-06-14T10:09:46;23.93;44.29
74081;SHT31;62438;52.228;6.864;2023-06-14T10:11:50;23.55;42.45
74081;SHT31;62438;52.228;6.864;2023-06-14T10:13:51;23.86;42.05
74081;SHT31;62438;52.228;6.864;2023-06-14T10:20:43;24.20;43.47
74081;SHT31;62438;52.228;6.864;2023-06-14T10:22:58;24.73;41.31
74081;SHT31;62438;52.228;6.864;2023-06-14T10:25:01;24.42;41.01
74081;SHT31;62438;52.228;6.864;2023-06-14T10:27:02;24.18;41.72
74081;SHT31;62438;52.228;6.864;2023-06-14T10:29:09;24.28;41.36
74081;SHT31;62438;52.228;6.864;2023-06-14T10:31:11;24.14;41.76
74081;SHT31;62438;52.228;6.864;2023-06-14T10:33:14;24.27;40.65
74081;SHT31;62438;52.228;6.864;2023-06-14T10:35:16;24.88;39.58
74081;SHT31;62438;52.228;6.864;2023-06-14T10:37:16;24.85;40.33
74081;SHT31;62438;52.228;6.864;2023-06-14T10:39:17;24.81;39.23
74081;SHT31;62438;52.228;6.864;2023-06-14T10:41:18;24.86;37.64
74081;SHT31;62438;52.228;6.864;2023-06-14T10:43:23;25.20;38.53
74081;SHT31;62438;52.228;6.864;2023-06-14T10:45:24;25.10;39.01
74081;SHT31;62438;52.228;6.864;2023-06-14T10:47:34;25.24;36.81
74081;SHT31;62438;52.228;6.864;2023-06-14T10:49:43;25.60;38.63
74081;SHT31;62438;52.228;6.864;2023-06-14T10:51:51;25.37;35.77
74081;SHT31;62438;52.228;6.864;2023-06-14T10:53:56;25.75;38.30
74081;SHT31;62438;52.228;6.864;2023-06-14T10:56:06;25.51;37.29
74081;SHT31;62438;52.228;6.864;2023-06-14T10:58:07;25.63;37.44
74081;SHT31;62438;52.228;6.864;2023-06-14T11:00:08;26.14;36.30
74081;SHT31;62438;52.228;6.864;2023-06-14T11:04:46;25.85;37.40
74081;SHT31;62438;52.228;6.864;2023-06-14T11:06:49;25.46;36.33
74081;SHT31;62438;52.228;6.864;2023-06-14T11:11:06;26.21;35.50
74081;SHT31;62438;52.228;6.864;2023-06-14T11:13:07;25.78;36.17
74081;SHT31;62438;52.228;6.864;2023-06-14T11:15:08;25.85;36.92
74081;SHT31;62438;52.228;6.864;2023-06-14T11:17:12;25.82;37.52
74081;SHT31;62438;52.228;6.864;2023-06-14T11:19:12;26.11;38.27
74081;SHT31;62438;52.228;6.864;2023-06-14T11:21:16;26.32;35.60
74081;SHT31;62438;52.228;6.864;2023-06-14T11:23:18;26.37;36.83
74081;SHT31;62438;52.228;6.864;2023-06-14T11:25:19;25.94;36.36
74081;SHT31;62438;52.228;6.864;2023-06-14T11:27:19;25.48;37.67
74081;SHT31;62438;52.228;6.864;2023-06-14T11:29:20;25.68;36.47
74081;SHT31;62438;52.228;6.864;2023-06-14T11:31:20;26.15;35.98
74081;SHT31;62438;52.228;6.864;2023-06-14T11:33:23;26.28;36.33
74081;SHT31;62438;52.228;6.864;2023-06-14T11:35:25;26.76;35.37
74081;SHT31;62438;52.228;6.864;2023-06-14T11:37:27;26.31;38.14
74081;SHT31;62438;52.228;6.864;2023-06-14T11:39:28;26.72;38.87
74081;SHT31;62438;52.228;6.864;2023-06-14T11:41:47;26.37;36.41
74081;SHT31;62438;52.228;6.864;2023-06-14T11:43:47;26.57;36.21
74081;SHT31;62438;52.228;6.864;2023-06-14T11:45:52;26.84;35.71
74081;SHT31;62438;52.228;6.864;2023-06-14T11:47:57;26.94;37.63
74081;SHT31;62438;52.228;6.864;2023-06-14T11:49:59;26.25;38.42
74081;SHT31;62438;52.228;6.864;2023-06-14T11:51:59;26.42;37.28
74081;SHT31;62438;52.228;6.864;2023-06-14T11:54:01;26.06;38.71
74081;SHT31;62438;52.228;6.864;2023-06-14T11:56:03;26.33;36.47
74081;SHT31;62438;52.228;6.864;2023-06-14T11:58:03;26.29;37.63
74081;SHT31;62438;52.228;6.864;2023-06-14T12:00:06;26.06;37.33
74081;SHT31;62438;52.228;6.864;2023-06-14T12:02:16;26.95;38.88
74081;SHT31;62438;52.228;6.864;2023-06-14T12:04:23;26.87;37.78
74081;SHT31;62438;52.228;6.864;2023-06-14T12:06:29;26.97;37.01
74081;SHT31;62438;52.228;6.864;2023-06-14T12:08:33;26.95;37.06
74081;SHT31;62438;52.228;6.864;2023-06-14T12:10:41;27.11;36.02
74081;SHT31;62438;52.228;6.864;2023-06-14T12:12:44;26.90;39.62
74081;SHT31;62438;52.228;6.864;2023-06-14T12:14:46;27.11;38.32
74081;SHT31;62438;52.228;6.864;2023-06-14T12:16:47;26.91;38.01
74081;SHT31;62438;52.228;6.864;2023-06-14T12:18:47;27.01;35.82
74081;SHT31;62438;52.228;6.864;2023-06-14T12:20:50;27.38;37.33
74081;SHT31;62438;52.228;6.864;2023-06-14T12:22:58;26.93;37.38
74081;SHT31;62438;52.228;6.864;2023-06-14T12:24:59;27.12;36.37
74081;SHT31;62438;52.228;6.864;2023-06-14T12:26:59;27.35;35.98
74081;SHT31;62438;52.228;6.864;2023-06-14T12:29:00;27.69;36.93
74081;SHT31;62438;52.228;6.864;2023-06-14T12:31:00;27.93;34.33
74081;SHT31;62438;52.228;6.864;2023-06-14T12:33:04;27.24;35.74
74081;SHT31;62438;52.228;6.864;2023-06-14T12:35:05;26.77;36.74
74081;SHT31;62438;52.228;6.864;2023-06-14T12:37:06;27.20;36.52
74081;SHT31;62438;52.228;6.864;2023-06-14T12:39:07;27.70;35.93
74081;SHT31;62438;52.228;6.864;2023-06-14T12:41:08;27.72;35.48
74081;SHT31;62438;52.228;6.864;2023-06-14T12:43:08;27.48;35.26
74081;SHT31;62438;52.228;6.864;2023-06-14T12:45:10;27.35;35.94
74081;SHT31;62438;52.228;6.864;2023-06-14T12:47:10;27.18;36.34
74081;SHT31;62438;52.228;6.864;2023-06-14T12:49:12;27.42;34.68
74081;SHT31;62438;52.228;6.864;2023-06-14T12:51:13;27.10;36.22
74081;SHT31;62438;52.228;6.864;2023-06-14T12:53:13;27.78;35.70
74081;SHT31;62438;52.228;6.864;2023-06-14T12:55:14;27.39;35.59
74081;SHT31;62438;52.228;6.864;2023-06-14T12:57:15;27.62;37.11
74081;SHT31;62438;52.228;6.864;2023-06-14T12:59:15;27.59;34.15
74081;SHT31;62438;52.228;6.864;2023-06-14T13:01:19;27.93;33.90